createdAt,value
2022-11-17T00:00:06.912Z,99130.56
2022-11-17T00:02:33.365Z,99131.94
2022-11-17T00:04:59.790Z,99115.13
2022-11-17T00:07:26.158Z,99093.22
2022-11-17T00:09:52.506Z,99103.94
2022-11-17T00:12:37.514Z,99085.22
2022-11-17T00:15:04.153Z,99082.84
2022-11-17T00:17:30.477Z,99077.50
2022-11-17T00:20:15.634Z,99062.25
2022-11-17T00:22:41.962Z,99062.56
2022-11-17T00:25:08.419Z,99044.34
2022-11-17T00:27:34.757Z,99039.78
2022-11-17T00:30:01.078Z,99039.78
2022-11-17T00:32:46.167Z,99030.66
2022-11-17T00:35:12.508Z,99035.69
2022-11-17T00:38:00.304Z,99033.34
2022-11-17T00:40:27.032Z,99009.28
2022-11-17T00:42:53.371Z,99014.63
2022-11-17T00:45:19.712Z,99002.84
2022-11-17T00:47:46.061Z,98981.75
2022-11-17T00:50:12.382Z,98972.97
2022-11-17T00:52:38.705Z,98965.72
2022-11-17T00:55:05.616Z,98969.19
2022-11-17T00:57:31.994Z,98958.50
2022-11-17T00:59:58.318Z,98950.31
2022-11-17T01:02:24.647Z,98944.97
2022-11-17T01:04:50.952Z,98936.16
2022-11-17T01:07:17.321Z,98920.91
2022-11-17T01:09:43.692Z,98938.81
2022-11-17T01:12:09.993Z,98932.38
2022-11-17T01:14:36.356Z,98908.31
2022-11-17T01:17:02.676Z,98885.84
2022-11-17T01:19:29.532Z,98890.72
2022-11-17T01:21:56.198Z,98886.16
2022-11-17T01:24:22.605Z,98886.16
2022-11-17T01:26:51.654Z,98870.91
2022-11-17T01:29:18.507Z,98887.75
2022-11-17T01:31:49.056Z,98884.00
2022-11-17T01:34:15.365Z,98880.19
2022-11-17T01:37:02.595Z,98888.22
2022-11-17T01:39:30.787Z,98880.69
2022-11-17T01:41:58.240Z,98884.44
2022-11-17T01:44:59.837Z,98875.81
2022-11-17T01:47:58.582Z,98860.59
2022-11-17T01:50:29.025Z,98863.72
2022-11-17T01:52:59.498Z,98864.53
2022-11-17T01:55:32.068Z,98873.03
2022-11-17T01:58:03.135Z,98855.56
2022-11-17T02:00:30.015Z,98853.69
2022-11-17T02:02:56.643Z,98839.69
2022-11-17T02:05:31.807Z,98838.59
2022-11-17T02:08:02.874Z,98841.28
2022-11-17T02:10:31.730Z,98835.63
2022-11-17T02:13:00.058Z,98832.16
2022-11-17T02:15:28.477Z,98818.50
2022-11-17T02:17:56.117Z,98815.50
2022-11-17T02:20:44.377Z,98822.91
2022-11-17T02:23:25.813Z,98826.06
2022-11-17T02:26:01.078Z,98830.31
2022-11-17T02:28:31.179Z,98810.81
2022-11-17T02:31:33.007Z,98815.84
2022-11-17T02:33:59.259Z,98798.69
2022-11-17T02:36:31.839Z,98799.19
2022-11-17T02:39:16.474Z,98799.97
2022-11-17T02:41:58.112Z,98787.38
2022-11-17T02:44:37.199Z,98786.59
2022-11-17T02:47:15.504Z,98787.06
2022-11-17T02:49:47.207Z,98787.06
2022-11-17T02:52:15.397Z,98793.22
2022-11-17T02:54:41.952Z,98805.16
2022-11-17T02:57:27.942Z,98780.31
2022-11-17T02:59:54.816Z,98780.31
2022-11-17T03:02:33.209Z,98781.09
2022-11-17T03:05:29.794Z,98775.13
2022-11-17T03:08:32.752Z,98776.22
2022-11-17T03:11:02.927Z,98753.75
2022-11-17T03:13:45.269Z,98767.88
2022-11-17T03:16:45.623Z,98765.69
2022-11-17T03:19:25.823Z,98760.66
2022-11-17T03:22:07.725Z,98756.88
2022-11-17T03:24:39.587Z,98758.00
2022-11-17T03:27:13.241Z,98745.41
2022-11-17T03:29:43.334Z,98734.69
2022-11-17T03:32:10.958Z,98729.34
2022-11-17T03:34:45.751Z,98727.47
2022-11-17T03:37:15.534Z,98730.91
2022-11-17T03:39:47.030Z,98713.00
2022-11-17T03:42:24.571Z,98729.81
2022-11-17T03:44:54.930Z,98719.94
2022-11-17T03:47:25.741Z,98724.19
2022-11-17T03:50:13.527Z,98714.25
2022-11-17T03:52:42.163Z,98711.25
2022-11-17T03:55:09.420Z,98717.09
2022-11-17T03:57:55.198Z,98699.94
2022-11-17T04:00:21.607Z,98706.09
2022-11-17T04:02:54.156Z,98694.75
2022-11-17T04:05:20.651Z,98697.41
2022-11-17T04:07:48.030Z,98714.56
2022-11-17T04:10:20.002Z,98705.44
2022-11-17T04:13:06.335Z,98704.03
2022-11-17T04:15:51.679Z,98702.47
2022-11-17T04:18:18.812Z,98701.50
2022-11-17T04:20:45.706Z,98690.03
2022-11-17T04:23:14.736Z,98691.63
2022-11-17T04:26:08.367Z,98691.91
2022-11-17T04:28:37.191Z,98685.13
2022-11-17T04:31:15.512Z,98684.03
2022-11-17T04:33:44.354Z,98672.25
2022-11-17T04:36:12.286Z,98665.63
2022-11-17T04:38:48.043Z,98665.97
2022-11-17T04:41:34.531Z,98648.63
2022-11-17T04:44:01.980Z,98644.72
2022-11-17T04:46:30.551Z,98651.16
2022-11-17T04:48:57.825Z,98632.78
2022-11-17T04:51:25.452Z,98635.75
2022-11-17T04:53:52.473Z,98630.09
2022-11-17T04:56:20.025Z,98630.09
2022-11-17T04:58:47.052Z,98615.63
2022-11-17T05:01:13.870Z,98614.81
2022-11-17T05:03:57.272Z,98617.03
2022-11-17T05:06:35.568Z,98613.56
2022-11-17T05:09:06.835Z,98611.69
2022-11-17T05:11:52.131Z,98619.06
2022-11-17T05:14:20.470Z,98618.44
2022-11-17T05:17:10.787Z,98615.44
2022-11-17T05:19:47.919Z,98615.16
2022-11-17T05:22:36.877Z,98620.94
2022-11-17T05:25:04.650Z,98618.28
2022-11-17T05:27:31.641Z,98621.13
2022-11-17T05:29:57.996Z,98613.88
2022-11-17T05:32:24.342Z,98608.50
2022-11-17T05:34:50.823Z,98606.66
2022-11-17T05:37:17.168Z,98610.09
2022-11-17T05:39:43.484Z,98609.31
2022-11-17T05:42:09.861Z,98600.50
2022-11-17T05:44:36.406Z,98592.47
2022-11-17T05:47:02.836Z,98577.03
2022-11-17T05:49:29.239Z,98586.16
2022-11-17T05:51:55.682Z,98588.53
2022-11-17T05:54:22.065Z,98596.88
2022-11-17T05:57:00.726Z,98583.81
2022-11-17T05:59:36.547Z,98586.81
2022-11-17T06:02:08.449Z,98584.44
2022-11-17T06:04:34.999Z,98584.44
2022-11-17T06:07:02.406Z,98582.56
2022-11-17T06:09:32.902Z,98579.91
2022-11-17T06:12:05.313Z,98574.09
2022-11-17T06:14:32.770Z,98582.56
2022-11-17T06:17:05.663Z,98586.03
2022-11-17T06:19:38.054Z,98594.84
2022-11-17T06:22:12.135Z,98567.00
2022-11-17T06:24:42.655Z,98583.06
2022-11-17T06:27:10.739Z,98584.63
2022-11-17T06:29:42.416Z,98593.09
2022-11-17T06:32:10.861Z,98574.84
2022-11-17T06:34:37.466Z,98582.56
2022-11-17T06:37:03.825Z,98583.00
2022-11-17T06:39:30.165Z,98596.09
2022-11-17T06:41:56.479Z,98607.25
2022-11-17T06:44:22.784Z,98608.03
2022-11-17T06:46:49.483Z,98614.19
2022-11-17T06:49:15.856Z,98625.19
2022-11-17T06:51:45.107Z,98613.72
2022-11-17T06:54:14.533Z,98627.09
2022-11-17T06:56:41.222Z,98629.28
2022-11-17T06:59:07.587Z,98626.63
2022-11-17T07:01:33.944Z,98631.97
2022-11-17T07:04:00.339Z,98631.97
2022-11-17T07:06:26.752Z,98623.94
2022-11-17T07:08:53.184Z,98620.94
2022-11-17T07:11:19.954Z,98631.97
2022-11-17T07:13:46.387Z,98634.63
2022-11-17T07:16:21.696Z,98632.28
2022-11-17T07:18:50.148Z,98636.06
2022-11-17T07:21:16.623Z,98646.44
2022-11-17T07:23:44.941Z,98651.03
2022-11-17T07:26:12.129Z,98642.19
2022-11-17T07:28:38.856Z,98646.78
2022-11-17T07:31:07.734Z,98654.78
2022-11-17T07:33:34.394Z,98659.81
2022-11-17T07:36:09.528Z,98654.78
2022-11-17T07:38:37.720Z,98653.22
2022-11-17T07:41:05.968Z,98655.41
2022-11-17T07:43:33.868Z,98656.53
2022-11-17T07:46:05.042Z,98667.22
2022-11-17T07:48:32.497Z,98670.22
2022-11-17T07:51:00.170Z,98666.41
2022-11-17T07:53:26.868Z,98676.66
2022-11-17T07:55:53.281Z,98676.66
2022-11-17T07:58:19.638Z,98674.28
2022-11-17T08:00:46.103Z,98686.09
2022-11-17T08:03:12.712Z,98682.16
2022-11-17T08:05:43.381Z,98684.34
2022-11-17T08:08:10.437Z,98690.66
2022-11-17T08:10:37.078Z,98692.06
2022-11-17T08:13:03.527Z,98693.19
2022-11-17T08:15:31.101Z,98696.00
2022-11-17T08:17:59.499Z,98703.09
2022-11-17T08:20:27.698Z,98707.94
2022-11-17T08:22:54.243Z,98695.19
2022-11-17T08:25:22.765Z,98707.00
2022-11-17T08:27:51.932Z,98716.09
2022-11-17T08:30:20.362Z,98708.41
2022-11-17T08:32:52.262Z,98720.69
2022-11-17T08:35:20.135Z,98711.56
2022-11-17T08:37:46.860Z,98710.75
2022-11-17T08:40:14.731Z,98720.69
2022-11-17T08:42:41.175Z,98713.75
2022-11-17T08:45:08.233Z,98720.19
2022-11-17T08:47:34.629Z,98722.06
2022-11-17T08:50:01.057Z,98726.16
2022-11-17T08:52:30.920Z,98712.03
2022-11-17T08:54:57.451Z,98731.84
2022-11-17T08:57:23.979Z,98730.75
2022-11-17T08:59:50.815Z,98720.34
2022-11-17T09:02:17.592Z,98730.25
2022-11-17T09:04:46.065Z,98730.88
2022-11-17T09:07:12.588Z,98736.22
2022-11-17T09:09:39.174Z,98749.25
2022-11-17T09:12:05.828Z,98752.91
2022-11-17T09:14:32.217Z,98745.53
2022-11-17T09:16:58.580Z,98745.19
2022-11-17T09:19:24.988Z,98740.66
2022-11-17T09:21:51.357Z,98754.03
2022-11-17T09:24:17.885Z,98760.47
2022-11-17T09:26:44.638Z,98755.59
2022-11-17T09:29:10.989Z,98761.22
2022-11-17T09:31:37.831Z,98759.03
2022-11-17T09:34:05.788Z,98765.19
2022-11-17T09:36:33.318Z,98772.91
2022-11-17T09:38:59.645Z,98751.03
2022-11-17T09:41:42.865Z,98770.06
2022-11-17T09:44:34.341Z,98777.28
2022-11-17T09:47:22.049Z,98782.00
2022-11-17T09:49:59.477Z,98794.59
2022-11-17T09:52:26.076Z,98797.56
2022-11-17T09:55:02.361Z,98799.16
2022-11-17T09:57:52.001Z,98788.94
2022-11-17T10:00:20.992Z,98792.69
2022-11-17T10:02:47.875Z,98794.00
2022-11-17T10:05:16.565Z,98811.13
2022-11-17T10:07:50.009Z,98804.81
2022-11-17T10:10:21.500Z,98813.31
2022-11-17T10:12:53.208Z,98808.25
2022-11-17T10:15:25.789Z,98819.88
2022-11-17T10:17:52.411Z,98809.03
2022-11-17T10:20:19.386Z,98818.94
2022-11-17T10:22:47.405Z,98827.75
2022-11-17T10:25:38.375Z,98828.72
2022-11-17T10:28:08.335Z,98823.53
2022-11-17T10:30:35.365Z,98822.44
2022-11-17T10:33:02.852Z,98823.53
2022-11-17T10:35:32.368Z,98828.88
2022-11-17T10:38:16.140Z,98840.66
2022-11-17T10:40:42.584Z,98834.34
2022-11-17T10:43:11.724Z,98834.34
2022-11-17T10:45:51.145Z,98834.03
2022-11-17T10:48:35.726Z,98836.09
2022-11-17T10:51:04.856Z,98847.06
2022-11-17T10:53:45.150Z,98836.69
2022-11-17T10:56:21.667Z,98847.06
2022-11-17T10:58:56.527Z,98823.50
2022-11-17T11:01:33.447Z,98836.72
2022-11-17T11:04:00.061Z,98834.53
2022-11-17T11:06:29.604Z,98838.97
2022-11-17T11:09:04.416Z,98839.44
2022-11-17T11:11:53.568Z,98842.75
2022-11-17T11:14:26.194Z,98867.13
2022-11-17T11:16:54.245Z,98852.19
2022-11-17T11:19:21.152Z,98861.78
2022-11-17T11:22:01.941Z,98862.25
2022-11-17T11:24:55.008Z,98869.50
2022-11-17T11:27:24.372Z,98875.63
2022-11-17T11:30:10.617Z,98872.81
2022-11-17T11:32:55.858Z,98874.84
2022-11-17T11:35:37.755Z,98876.25
2022-11-17T11:38:16.088Z,98878.75
2022-11-17T11:40:45.569Z,98884.91
2022-11-17T11:43:36.010Z,98886.44
2022-11-17T11:47:00.629Z,98894.66
2022-11-17T11:49:42.416Z,98893.88
2022-11-17T11:52:20.856Z,98899.03
2022-11-17T11:54:54.416Z,98908.16
2022-11-17T11:57:27.398Z,98899.66
2022-11-17T12:00:04.491Z,98892.91
2022-11-17T12:03:01.677Z,98905.00
2022-11-17T12:06:28.109Z,98901.56
2022-11-17T12:09:10.090Z,98899.47
2022-11-17T12:11:58.504Z,98907.81
2022-11-17T12:14:24.855Z,98923.06
2022-11-17T12:17:01.618Z,98909.22
2022-11-17T12:20:26.371Z,98904.94
2022-11-17T12:23:06.529Z,98899.94
2022-11-17T12:25:35.974Z,98903.38
2022-11-17T12:28:33.012Z,98911.72
2022-11-17T12:31:10.824Z,98918.63
2022-11-17T12:34:06.537Z,98909.84
2022-11-17T12:36:34.413Z,98917.88
2022-11-17T12:39:08.712Z,98911.38
2022-11-17T12:41:47.209Z,98910.28
2022-11-17T12:44:31.841Z,98916.75
2022-11-17T12:47:16.843Z,98923.97
2022-11-17T12:49:58.252Z,98920.53
2022-11-17T12:52:43.576Z,98929.66
2022-11-17T12:55:21.493Z,98925.88
2022-11-17T12:57:55.217Z,98922.09
2022-11-17T13:00:25.903Z,98924.75
2022-11-17T13:03:10.224Z,98928.56
2022-11-17T13:05:37.402Z,98933.09
2022-11-17T13:08:22.248Z,98941.59
2022-11-17T13:10:49.986Z,98945.69
2022-11-17T13:13:17.814Z,98945.38
2022-11-17T13:15:44.819Z,98950.41
2022-11-17T13:18:18.480Z,98961.59
2022-11-17T13:20:48.440Z,98946.03
2022-11-17T13:23:23.529Z,98957.53
2022-11-17T13:25:50.812Z,98959.41
2022-11-17T13:28:27.677Z,98975.75
2022-11-17T13:30:54.130Z,98969.13
2022-11-17T13:33:23.769Z,98979.34
2022-11-17T13:36:04.748Z,98984.69
2022-11-17T13:38:31.580Z,98980.44
2022-11-17T13:40:58.751Z,98975.38
2022-11-17T13:43:27.833Z,98967.69
2022-11-17T13:45:55.101Z,98967.97
2022-11-17T13:48:34.905Z,98980.56
2022-11-17T13:51:19.674Z,98974.72
2022-11-17T13:53:49.992Z,98983.53
2022-11-17T13:56:36.457Z,98998.00
2022-11-17T13:59:33.676Z,98992.94
2022-11-17T14:02:14.942Z,98992.16
2022-11-17T14:04:42.649Z,99002.03
2022-11-17T14:07:11.570Z,99002.84
2022-11-17T14:09:37.910Z,99001.28
2022-11-17T14:12:10.863Z,98996.41
2022-11-17T14:14:43.589Z,99004.13
2022-11-17T14:17:19.391Z,98995.50
2022-11-17T14:19:46.706Z,99005.59
2022-11-17T14:22:18.176Z,99009.84
2022-11-17T14:24:48.788Z,99012.19
2022-11-17T14:27:27.331Z,99010.03
2022-11-17T14:29:54.111Z,99009.69
2022-11-17T14:32:20.526Z,99010.50
2022-11-17T14:34:46.936Z,99031.91
2022-11-17T14:37:13.609Z,99016.81
2022-11-17T14:39:39.973Z,99028.00
2022-11-17T14:42:06.297Z,99020.28
2022-11-17T14:44:32.607Z,99027.22
2022-11-17T14:46:58.917Z,99025.03
2022-11-17T14:49:25.336Z,99028.78
2022-11-17T14:51:53.109Z,99041.84
2022-11-17T14:54:19.561Z,99032.75
2022-11-17T14:56:45.992Z,99034.31
2022-11-17T14:59:13.394Z,99048.47
2022-11-17T15:01:40.992Z,99045.19
2022-11-17T15:04:34.520Z,99048.66
2022-11-17T15:06:53.931Z,99047.38
2022-11-17T15:09:20.544Z,99056.50
2022-11-17T15:11:47.525Z,99052.72
2022-11-17T15:14:14.480Z,99056.97
2022-11-17T15:16:41.109Z,99068.16
2022-11-17T15:19:07.506Z,99064.41
2022-11-17T15:21:34.039Z,99059.81
2022-11-17T15:24:01.915Z,99067.38
2022-11-17T15:26:28.229Z,99063.41
2022-11-17T15:28:57.830Z,99067.19
2022-11-17T15:31:24.177Z,99069.25
2022-11-17T15:33:50.543Z,99079.47
2022-11-17T15:36:19.084Z,99078.97
2022-11-17T15:38:45.985Z,99088.47
2022-11-17T15:41:13.948Z,99082.63
2022-11-17T15:43:41.836Z,99087.19
2022-11-17T15:46:26.480Z,99087.50
2022-11-17T15:48:54.788Z,99090.16
2022-11-17T15:51:23.664Z,99091.16
2022-11-17T15:53:52.408Z,99095.22
2022-11-17T15:56:24.773Z,99102.75
2022-11-17T15:59:03.018Z,99104.50
2022-11-17T16:01:30.638Z,99104.63
2022-11-17T16:03:59.276Z,99103.66
2022-11-17T16:06:25.756Z,99105.03
2022-11-17T16:08:52.450Z,99109.28
2022-11-17T16:11:19.149Z,99112.28
2022-11-17T16:13:45.877Z,99119.31
2022-11-17T16:16:14.421Z,99113.38
2022-11-17T16:18:41.532Z,99111.47
2022-11-17T16:21:11.115Z,99119.22
2022-11-17T16:23:48.953Z,99121.56
2022-11-17T16:26:17.049Z,99122.50
2022-11-17T16:28:43.617Z,99124.38
2022-11-17T16:31:20.229Z,99132.19
2022-11-17T16:33:51.855Z,99135.66
2022-11-17T16:36:19.513Z,99139.13
2022-11-17T16:39:00.523Z,99133.00
2022-11-17T16:41:33.304Z,99139.25
2022-11-17T16:44:00.625Z,99137.66
2022-11-17T16:46:31.492Z,99148.53
2022-11-17T16:49:03.394Z,99147.56
2022-11-17T16:51:30.102Z,99151.03
2022-11-17T16:54:07.728Z,99162.22
2022-11-17T16:56:34.425Z,99143.50
2022-11-17T16:59:00.897Z,99147.78
2022-11-17T17:01:32.359Z,99158.47
2022-11-17T17:04:04.288Z,99154.66
2022-11-17T17:06:30.789Z,99165.38
2022-11-17T17:09:00.031Z,99166.16
2022-11-17T17:11:29.028Z,99172.78
2022-11-17T17:13:56.490Z,99173.59
2022-11-17T17:16:23.414Z,99175.19
2022-11-17T17:18:54.937Z,99172.28
2022-11-17T17:21:21.330Z,99181.72
2022-11-17T17:23:47.718Z,99190.81
2022-11-17T17:26:18.127Z,99186.28
2022-11-17T17:28:46.932Z,99191.63
2022-11-17T17:31:20.728Z,99201.53
2022-11-17T17:33:48.332Z,99211.72
2022-11-17T17:36:17.084Z,99212.53
2022-11-17T17:38:44.061Z,99216.28
2022-11-17T17:41:16.007Z,99218.47
2022-11-17T17:43:44.042Z,99220.03
2022-11-17T17:46:15.724Z,99229.34
2022-11-17T17:48:44.310Z,99236.59
2022-11-17T17:51:18.211Z,99230.75
2022-11-17T17:53:45.121Z,99236.41
2022-11-17T17:56:13.581Z,99243.09
2022-11-17T17:58:41.135Z,99245.50
2022-11-17T18:01:12.670Z,99254.31
2022-11-17T18:03:39.944Z,99254.09
2022-11-17T18:06:06.816Z,99257.28
2022-11-17T18:08:35.556Z,99262.91
2022-11-17T18:11:03.744Z,99267.47
2022-11-17T18:13:35.141Z,99266.06
2022-11-17T18:16:13.161Z,99267.75
2022-11-17T18:18:40.389Z,99270.44
2022-11-17T18:21:09.268Z,99268.06
2022-11-17T18:23:36.548Z,99266.78
2022-11-17T18:26:18.194Z,99259.34
2022-11-17T18:28:53.387Z,99268.97
2022-11-17T18:31:21.080Z,99269.47
2022-11-17T18:33:51.742Z,99279.66
2022-11-17T18:36:18.557Z,99267.06
2022-11-17T18:38:45.264Z,99279.06
2022-11-17T18:41:14.021Z,99275.69
2022-11-17T18:43:41.056Z,99278.16
2022-11-17T18:46:08.872Z,99277.66
2022-11-17T18:48:39.964Z,99284.88
2022-11-17T18:51:20.570Z,99291.31
2022-11-17T18:53:51.432Z,99292.41
2022-11-17T18:56:20.250Z,99298.31
2022-11-17T18:58:46.929Z,99299.72
2022-11-17T19:01:14.495Z,99301.09
2022-11-17T19:03:42.603Z,99307.34
2022-11-17T19:06:10.916Z,99308.41
2022-11-17T19:08:38.241Z,99310.00
2022-11-17T19:11:06.692Z,99315.94
2022-11-17T19:13:35.385Z,99316.72
2022-11-17T19:16:09.080Z,99323.44
2022-11-17T19:18:35.755Z,99328.38
2022-11-17T19:21:11.311Z,99333.44
2022-11-17T19:23:39.743Z,99331.94
2022-11-17T19:26:08.609Z,99346.66
2022-11-17T19:28:35.628Z,99347.16
2022-11-17T19:31:04.116Z,99338.13
2022-11-17T19:33:35.259Z,99347.50
2022-11-17T19:36:14.053Z,99352.63
2022-11-17T19:38:41.109Z,99363.91
2022-11-17T19:41:10.007Z,99369.22
2022-11-17T19:43:43.386Z,99364.69
2022-11-17T19:46:14.515Z,99368.66
2022-11-17T19:48:41.637Z,99377.19
2022-11-17T19:51:19.821Z,99378.06
2022-11-17T19:53:51.647Z,99379.13
2022-11-17T19:56:18.776Z,99382.59
2022-11-17T19:58:45.708Z,99378.91
2022-11-17T20:01:22.213Z,99384.84
2022-11-17T20:03:49.634Z,99396.00
2022-11-17T20:06:18.775Z,99406.22
2022-11-17T20:08:46.240Z,99403.03
2022-11-17T20:11:18.171Z,99412.63
2022-11-17T20:13:45.046Z,99410.16
2022-11-17T20:16:14.632Z,99412.13
2022-11-17T20:18:42.226Z,99424.38
2022-11-17T20:21:10.210Z,99420.63
2022-11-17T20:23:38.120Z,99426.25
2022-11-17T20:26:13.184Z,99416.88
2022-11-17T20:28:39.850Z,99438.50
2022-11-17T20:31:26.483Z,99442.00
2022-11-17T20:34:00.268Z,99446.81
2022-11-17T20:36:28.573Z,99453.25
2022-11-17T20:39:05.804Z,99458.28
2022-11-17T20:41:32.390Z,99465.00
2022-11-17T20:44:00.423Z,99463.13
2022-11-17T20:46:27.342Z,99472.22
2022-11-17T20:48:53.783Z,99466.09
2022-11-17T20:51:23.120Z,99469.31
2022-11-17T20:53:50.276Z,99483.25
2022-11-17T20:56:17.240Z,99479.50
2022-11-17T20:58:43.904Z,99484.91
2022-11-17T21:01:15.962Z,99482.25
2022-11-17T21:03:43.250Z,99487.28
2022-11-17T21:06:10.365Z,99492.09
2022-11-17T21:08:38.989Z,99498.53
2022-11-17T21:11:08.612Z,99504.16
2022-11-17T21:13:36.292Z,99510.06
2022-11-17T21:16:11.980Z,99509.63
2022-11-17T21:18:40.260Z,99509.63
2022-11-17T21:21:10.368Z,99523.75
2022-11-17T21:23:38.193Z,99517.91
2022-11-17T21:26:06.697Z,99523.53
2022-11-17T21:28:34.407Z,99524.59
2022-11-17T21:31:12.148Z,99528.13
2022-11-17T21:33:39.083Z,99527.34
2022-11-17T21:36:07.692Z,99527.41
2022-11-17T21:38:34.203Z,99529.75
2022-11-17T21:41:05.301Z,99531.66
2022-11-17T21:43:32.243Z,99525.81
2022-11-17T21:46:02.748Z,99526.88
2022-11-17T21:48:29.616Z,99531.44
2022-11-17T21:50:56.108Z,99533.28
2022-11-17T21:53:22.556Z,99534.13
2022-11-17T21:55:48.935Z,99540.84
2022-11-17T21:58:15.288Z,99544.59
2022-11-17T22:00:41.760Z,99546.97
2022-11-17T22:03:08.247Z,99552.59
2022-11-17T22:05:34.664Z,99554.44
2022-11-17T22:08:01.052Z,99558.78
2022-11-17T22:10:27.456Z,99558.03
2022-11-17T22:12:53.789Z,99556.44
2022-11-17T22:15:20.091Z,99567.66
2022-11-17T22:17:46.504Z,99575.16
2022-11-17T22:20:12.878Z,99576.50
2022-11-17T22:22:39.289Z,99580.03
2022-11-17T22:25:29.962Z,99577.84
2022-11-17T22:27:52.157Z,99581.56
2022-11-17T22:30:18.619Z,99585.81
2022-11-17T22:32:45.435Z,99584.28
2022-11-17T22:35:11.982Z,99583.75
2022-11-17T22:37:38.333Z,99591.50
2022-11-17T22:40:05.088Z,99602.16
2022-11-17T22:42:31.502Z,99604.06
2022-11-17T22:44:57.823Z,99606.72
2022-11-17T22:47:24.153Z,99609.38
2022-11-17T22:49:50.561Z,99610.75
2022-11-17T22:52:16.900Z,99613.66
2022-11-17T22:54:43.381Z,99617.41
2022-11-17T22:57:09.748Z,99616.41
2022-11-17T22:59:36.092Z,99614.28
2022-11-17T23:02:02.472Z,99635.59
2022-11-17T23:04:28.874Z,99635.63
2022-11-17T23:06:55.419Z,99633.53
2022-11-17T23:09:21.873Z,99637.78
2022-11-17T23:11:49.342Z,99642.88
2022-11-17T23:14:15.855Z,99639.41
2022-11-17T23:16:42.666Z,99647.66
2022-11-17T23:19:12.907Z,99649.84
2022-11-17T23:21:39.465Z,99646.13
2022-11-17T23:24:06.335Z,99655.97
2022-11-17T23:26:32.754Z,99649.34
2022-11-17T23:28:59.390Z,99651.22
2022-11-17T23:31:27.874Z,99662.94
2022-11-17T23:33:54.317Z,99662.69
2022-11-17T23:36:21.709Z,99662.19
2022-11-17T23:38:49.581Z,99668.56
2022-11-17T23:41:19.276Z,99666.16
2022-11-17T23:43:46.521Z,99672.56
2022-11-17T23:46:16.341Z,99676.03
2022-11-17T23:48:44.210Z,99674.44
2022-11-17T23:51:19.293Z,99675.78
2022-11-17T23:53:46.699Z,99690.44
2022-11-17T23:56:13.544Z,99688.06
2022-11-17T23:58:40.148Z,99689.13
